Time;durP1;ratioP1;P1;durP2;ratioP2;P2;SDS_P1;SDS_P2;PMS_P1;PMS_P2;Temp;Humidity;BMP_temperature;BMP_pressure;BME280_temperature;BME280_humidity;BME280_pressure;Samples;Min_cycle;Max_cycle;Signal;HPM_P1;HPM_P2
2022/08/16 00:01:53;;;;;;;42.90;23.80;;;;;;;-144.47;78.00;53312.94;5041702;28;20398;-67
2022/08/16 00:04:19;;;;;;;48.67;24.67;;;;;;;-144.47;78.29;53263.28;5024238;28;20025;-71
2022/08/16 00:06:44;;;;;;;45.53;24.95;;;;;;;-144.47;78.08;53308.97;5051377;28;20495;-68
2022/08/16 00:09:09;;;;;;;44.05;26.75;;;;;;;-144.47;78.06;53316.91;5051780;28;20020;-68
2022/08/16 00:11:35;;;;;;;43.08;24.10;;;;;;;-144.47;78.13;53316.91;5033913;28;20025;-66
2022/08/16 00:14:03;;;;;;;47.50;24.98;;;;;;;-144.47;78.24;53316.91;5017627;28;20075;-69
2022/08/16 00:16:31;;;;;;;45.25;24.10;;;;;;;-144.47;78.60;53312.94;5017369;28;20028;-69
2022/08/16 00:18:58;;;;;;;39.37;22.10;;;;;;;-144.47;78.60;53283.13;5052008;28;20375;-68
2022/08/16 00:21:23;;;;;;;48.47;26.88;;;;;;;-144.47;78.84;53303.00;5051546;28;20078;-67
2022/08/16 00:23:49;;;;;;;47.85;25.35;;;;;;;-144.47;78.99;53297.03;5050788;28;20100;-70
2022/08/16 00:26:15;;;;;;;44.25;25.00;;;;;;;-144.47;79.34;53281.16;5052205;22;20066;-69
2022/08/16 00:28:40;;;;;;;52.65;24.70;;;;;;;-144.47;79.34;53326.84;5048697;28;20413;-72
2022/08/16 00:31:06;;;;;;;41.60;23.95;;;;;;;-144.47;79.76;53275.19;5053149;28;20055;-72
2022/08/16 00:33:31;;;;;;;45.33;25.60;;;;;;;-144.47;80.01;53277.19;5067279;28;20060;-71
2022/08/16 00:35:57;;;;;;;49.45;23.40;;;;;;;-144.47;80.31;53305.00;5091092;28;20447;-72
2022/08/16 00:38:22;;;;;;;44.25;24.08;;;;;;;-144.47;80.06;53356.63;5090654;28;20012;-72
2022/08/16 00:40:52;;;;;;;47.17;25.35;;;;;;;-144.47;80.14;53289.09;5091169;28;20030;-70
2022/08/16 00:43:27;;;;;;;46.47;24.63;;;;;;;-144.47;80.51;53303.00;5072529;28;20081;-71
2022/08/16 00:46:18;;;;;;;49.72;26.92;;;;;;;-144.47;80.69;53301.03;5072508;28;20024;-72
2022/08/16 00:48:44;;;;;;;43.83;24.30;;;;;;;-144.47;80.99;53295.06;5072139;28;20035;-69
2022/08/16 00:51:10;;;;;;;53.95;27.23;;;;;;;-144.47;81.24;53356.63;5089686;28;20382;-68
2022/08/16 00:53:36;;;;;;;45.88;24.67;;;;;;;-144.47;81.10;53308.97;5072140;28;20065;-71
2022/08/16 00:56:05;;;;;;;46.67;25.30;;;;;;;-144.47;81.43;53332.81;5090611;28;20096;-71
2022/08/16 00:58:32;;;;;;;54.25;26.92;;;;;;;-144.47;81.60;53279.16;5090225;28;20036;-71
2022/08/16 01:00:58;;;;;;;51.17;26.55;;;;;;;-144.47;81.97;53336.78;5090680;28;20492;-72
2022/08/16 01:03:27;;;;;;;43.88;25.38;;;;;;;-144.47;81.72;53318.91;5085746;28;20108;-69
2022/08/16 01:05:52;;;;;;;46.42;26.17;;;;;;;-144.47;81.97;53316.91;5090357;28;20455;-70
2022/08/16 01:08:21;;;;;;;45.85;24.88;;;;;;;-144.47;81.97;53318.91;5071698;28;20103;-71
2022/08/16 01:10:47;;;;;;;54.72;25.23;;;;;;;-144.47;81.70;53314.91;5090494;28;20016;-71
2022/08/16 01:13:20;;;;;;;43.53;24.08;;;;;;;-144.47;81.40;53306.97;5038623;28;20143;-69
2022/08/16 01:15:57;;;;;;;49.88;24.35;;;;;;;-144.47;81.20;53293.06;5072741;28;20028;-69
2022/08/16 01:18:27;;;;;;;46.97;22.85;;;;;;;-144.47;80.94;53316.91;5081479;28;20103;-68
2022/08/16 01:21:19;;;;;;;50.00;25.08;;;;;;;-144.47;80.89;53305.00;5085599;28;20035;-68
2022/08/16 01:24:08;;;;;;;46.97;22.90;;;;;;;-144.47;80.76;53308.97;5052279;28;20463;-72
2022/08/16 01:26:33;;;;;;;;;;;;;;;-144.47;80.45;53350.69;5044856;28;20512;-68
2022/08/16 01:29:03;;;;;;;39.50;21.23;;;;;;;-144.47;80.31;53346.72;5092923;28;19916;-67
2022/08/16 01:31:29;;;;;;;47.53;24.05;;;;;;;-144.47;80.43;53332.81;5081819;28;20043;-69
2022/08/16 01:33:55;;;;;;;38.72;21.02;;;;;;;-144.47;80.53;53352.66;5054580;28;20032;-73
2022/08/16 01:36:21;;;;;;;46.72;24.17;;;;;;;-144.47;80.35;53328.81;5054761;28;20315;-70
2022/08/16 01:38:48;;;;;;;45.28;22.40;;;;;;;-144.47;80.36;53318.91;5092730;28;20027;-73
2022/08/16 01:41:20;;;;;;;51.22;23.27;;;;;;;-144.47;80.67;53342.72;5099829;28;20036;-69
2022/08/16 01:43:48;;;;;;;48.97;24.10;;;;;;;-144.47;80.55;53318.91;5103233;28;20159;-69
2022/08/16 01:46:27;;;;;;;39.83;21.50;;;;;;;-144.47;80.75;53308.97;5101440;28;20110;-72
2022/08/16 01:48:56;;;;;;;49.80;24.98;;;;;;;-144.47;80.68;53346.72;5089901;28;20028;-70
2022/08/16 01:51:24;;;;;;;45.78;22.42;;;;;;;-144.47;80.76;53314.91;5072229;28;20035;-73
2022/08/16 01:53:49;;;;;;;42.72;23.02;;;;;;;-144.47;80.95;53306.97;5089655;28;20032;-72
2022/08/16 01:56:15;;;;;;;70.07;25.77;;;;;;;-144.47;81.05;53303.00;5071585;28;20075;-72
2022/08/16 01:58:40;;;;;;;53.50;23.73;;;;;;;-144.47;80.83;53320.88;5054777;28;20181;-73
2022/08/16 02:01:06;;;;;;;51.35;24.95;;;;;;;-144.47;80.89;53297.03;5090348;28;20443;-68
2022/08/16 02:03:32;;;;;;;47.22;22.77;;;;;;;-144.47;80.75;53320.88;5093713;28;20489;-71
2022/08/16 02:05:57;;;;;;;42.72;22.13;;;;;;;-144.47;80.46;53348.69;5058762;28;20024;-70
2022/08/16 02:08:25;;;;;;;56.10;25.60;;;;;;;-144.47;80.50;53306.97;5075174;28;20020;-73
2022/08/16 02:10:51;;;;;;;51.60;24.75;;;;;;;-144.47;80.55;53366.56;5072883;28;20480;-72
2022/08/16 02:13:17;;;;;;;51.78;23.65;;;;;;;-144.47;80.70;53330.81;5093540;28;20028;-70
2022/08/16 02:15:43;;;;;;;56.55;24.33;;;;;;;-144.47;80.46;53346.72;5075705;28;20055;-68
2022/08/16 02:18:08;;;;;;;82.57;37.47;;;;;;;-144.47;80.58;53326.84;5075692;28;20191;-72
2022/08/16 02:20:36;;;;;;;43.85;23.95;;;;;;;-144.47;80.50;53354.66;5095420;28;20504;-71
2022/08/16 02:23:02;;;;;;;43.83;22.70;;;;;;;-144.47;80.68;53338.75;5108843;28;20067;-73
2022/08/16 02:25:28;;;;;;;40.47;22.10;;;;;;;-144.47;80.80;53338.75;5059515;28;20020;-72
2022/08/16 02:27:53;;;;;;;43.97;22.33;;;;;;;-144.47;80.97;53340.75;5078813;28;20035;-69
2022/08/16 02:30:25;;;;;;;46.22;23.92;;;;;;;-144.47;80.81;53283.13;5099410;28;20028;-72
2022/08/16 02:32:50;;;;;;;46.97;23.73;;;;;;;-144.47;80.82;53316.91;5109145;28;20024;-69
2022/08/16 02:35:16;;;;;;;39.22;22.67;;;;;;;-144.47;80.93;53326.84;5078131;28;20020;-72
2022/08/16 02:37:42;;;;;;;44.08;23.20;;;;;;;-144.47;81.05;53334.78;5089314;28;20020;-71
2022/08/16 02:40:09;;;;;;;46.88;24.58;;;;;;;-144.47;80.93;53338.75;5109677;28;20076;-71
2022/08/16 02:42:35;;;;;;;48.88;23.45;;;;;;;-144.47;80.80;53308.97;5059928;28;20055;-71
2022/08/16 02:45:01;;;;;;;48.70;24.38;;;;;;;-144.47;80.68;53322.88;5079378;28;20504;-70
2022/08/16 02:47:27;;;;;;;52.42;23.23;;;;;;;-144.47;80.83;53324.84;5105767;28;20055;-70
2022/08/16 02:49:52;;;;;;;52.35;23.45;;;;;;;-144.47;81.08;53334.78;5095391;28;20016;-69
2022/08/16 02:52:18;;;;;;;37.50;22.75;;;;;;;-144.47;81.15;53334.78;5069046;28;20019;-71
2022/08/16 02:54:43;;;;;;;51.53;24.02;;;;;;;-144.47;80.98;53310.94;5080903;28;20032;-69
2022/08/16 02:57:09;;;;;;;53.05;23.80;;;;;;;-144.47;80.94;53303.00;5082968;28;20072;-72
2022/08/16 02:59:34;;;;;;;50.22;25.05;;;;;;;-144.47;80.88;53364.59;5098109;28;20107;-71
2022/08/16 03:02:00;;;;;;;49.38;24.48;;;;;;;-144.47;80.72;53370.53;5083172;28;20074;-73
2022/08/16 03:04:25;;;;;;;48.03;24.92;;;;;;;-144.47;80.76;53338.75;5079313;28;20056;-69
2022/08/16 03:06:52;;;;;;;43.00;24.75;;;;;;;-144.47;80.56;53354.66;5092495;28;20031;-74
2022/08/16 03:09:17;;;;;;;47.35;23.73;;;;;;;-144.47;80.58;53293.06;5074382;28;20028;-71
2022/08/16 03:11:43;;;;;;;50.78;26.00;;;;;;;-144.47;80.95;53312.94;5074395;28;20124;-72
2022/08/16 03:14:10;;;;;;;44.20;22.67;;;;;;;-144.47;81.25;53316.91;5092821;28;20016;-72
2022/08/16 03:16:35;;;;;;;53.53;25.63;;;;;;;-144.47;81.36;53320.88;5080887;28;20059;-71
2022/08/16 03:19:01;;;;;;;43.95;23.95;;;;;;;-144.47;81.28;53310.94;5102005;28;20479;-72
2022/08/16 03:21:27;;;;;;;53.60;25.38;;;;;;;-144.47;81.26;53299.03;5092043;28;20016;-70
2022/08/16 03:23:52;;;;;;;47.85;24.60;;;;;;;-144.47;80.92;53342.72;5090510;28;20032;-68
2022/08/16 03:26:19;;;;;;;54.50;24.45;;;;;;;-144.47;81.03;53328.81;5078242;28;20591;-69
2022/08/16 03:28:44;;;;;;;56.55;25.42;;;;;;;-144.47;80.61;53328.81;5091033;28;20480;-70
2022/08/16 03:31:10;;;;;;;48.63;23.67;;;;;;;-144.47;80.13;53324.84;5099284;28;20162;-71
2022/08/16 03:33:36;;;;;;;54.20;24.17;;;;;;;-144.47;79.98;53324.84;5097663;28;20143;-70
2022/08/16 03:36:02;;;;;;;43.13;22.67;;;;;;;-144.47;79.63;53316.91;5104020;28;20683;-68
2022/08/16 03:38:29;;;;;;;41.22;22.42;;;;;;;-144.47;79.58;53370.53;5104023;28;20034;-69
2022/08/16 03:40:56;;;;;;;44.63;21.92;;;;;;;-144.47;79.52;53312.94;5091473;28;20425;-69
2022/08/16 03:43:23;;;;;;;43.55;23.15;;;;;;;-144.47;79.45;53346.72;5090709;28;20149;-70
2022/08/16 03:45:54;;;;;;;44.72;22.90;;;;;;;-144.47;79.29;53305.00;5090924;28;20131;-68
2022/08/16 03:48:22;;;;;;;42.75;24.30;;;;;;;-144.47;79.06;53328.81;5090144;28;20074;-71
2022/08/16 03:50:47;;;;;;;37.05;22.67;;;;;;;-144.47;79.09;53344.72;5072600;28;20020;-70
2022/08/16 03:53:13;;;;;;;47.88;22.33;;;;;;;-144.47;78.79;53348.69;5090183;28;20530;-70
2022/08/16 03:55:38;;;;;;;40.72;22.73;;;;;;;-144.47;79.08;53346.72;5090491;28;20016;-72
2022/08/16 03:58:04;;;;;;;44.38;21.58;;;;;;;-144.47;79.11;53322.88;5090142;28;20126;-71
2022/08/16 04:00:30;;;;;;;45.83;21.02;;;;;;;-144.47;79.18;53378.50;5090939;28;20016;-70
2022/08/16 04:02:57;;;;;;;45.38;22.50;;;;;;;-144.47;79.21;53324.84;5090225;28;20012;-70
2022/08/16 04:05:24;;;;;;;39.75;22.10;;;;;;;-144.47;79.28;53344.72;5098271;28;20095;-69
2022/08/16 04:07:49;;;;;;;44.08;22.30;;;;;;;-144.47;79.44;53320.88;5096934;28;20402;-70
2022/08/16 04:10:15;;;;;;;40.15;22.33;;;;;;;-144.47;79.34;53378.50;5084248;28;20089;-71
2022/08/16 04:12:42;;;;;;;47.78;22.23;;;;;;;-144.47;79.34;53350.69;5104046;28;20168;-71
2022/08/16 04:15:11;;;;;;;37.90;22.23;;;;;;;-144.47;79.50;53342.72;5090717;28;20044;-69
2022/08/16 04:17:37;;;;;;;41.38;21.52;;;;;;;-144.47;79.47;53324.84;5089807;28;20012;-71
2022/08/16 04:20:07;;;;;;;41.88;21.73;;;;;;;-144.47;79.01;53287.13;5071712;28;20051;-69
2022/08/16 04:22:33;;;;;;;38.70;22.40;;;;;;;-144.47;78.73;53316.91;5103980;28;20015;-69
2022/08/16 04:25:19;;;;;;;57.65;24.05;;;;;;;-144.47;78.61;53384.44;5078424;28;20040;-71
2022/08/16 04:27:45;;;;;;;49.03;23.17;;;;;;;-144.47;78.12;53350.69;4971587;28;20412;-70
2022/08/16 04:30:13;;;;;;;45.33;22.75;;;;;;;-144.47;77.51;53308.97;4980847;28;20034;-70
2022/08/16 04:32:40;;;;;;;40.28;22.13;;;;;;;-144.47;77.59;53330.81;4987452;28;20041;-70
2022/08/16 04:35:08;;;;;;;43.97;22.13;;;;;;;-144.47;77.29;53303.00;4994630;28;20058;-72
2022/08/16 04:37:33;;;;;;;43.72;22.00;;;;;;;-144.47;77.17;53362.59;4974555;28;20213;-71
2022/08/16 04:39:59;;;;;;;43.85;20.45;;;;;;;-144.47;77.06;53358.63;4987542;28;20626;-70
2022/08/16 04:42:24;;;;;;;45.97;23.45;;;;;;;-144.47;77.15;53352.66;4976647;28;20034;-71
2022/08/16 04:44:50;;;;;;;32.17;19.00;;;;;;;-144.47;76.92;53308.97;4987208;28;20554;-70
2022/08/16 04:47:15;;;;;;;40.75;21.25;;;;;;;-144.47;76.69;53344.72;4986030;28;20030;-68
2022/08/16 04:49:40;;;;;;;37.67;21.77;;;;;;;-144.47;76.55;53332.81;4987380;28;20030;-71
2022/08/16 04:52:06;;;;;;;43.20;21.52;;;;;;;-144.47;76.00;53338.75;4981967;28;20591;-69
2022/08/16 04:54:31;;;;;;;36.38;19.45;;;;;;;-144.47;75.40;53344.72;4981115;28;20456;-72
2022/08/16 04:56:57;;;;;;;34.22;19.02;;;;;;;-144.47;74.76;53328.81;4987203;28;20022;-71
2022/08/16 04:59:22;;;;;;;35.17;18.27;;;;;;;-144.47;74.76;53340.75;4987423;28;20129;-70
2022/08/16 05:01:48;;;;;;;40.67;19.63;;;;;;;-144.47;74.76;53324.84;4976101;28;20117;-72
2022/08/16 05:04:13;;;;;;;36.58;18.35;;;;;;;-144.47;74.27;53324.84;5006311;28;20359;-72
2022/08/16 05:06:39;;;;;;;34.55;16.90;;;;;;;-144.47;73.53;53320.88;5101129;28;20489;-71
2022/08/16 05:09:05;;;;;;;73.82;21.35;;;;;;;-144.47;72.93;53352.66;5096234;28;20024;-68
2022/08/16 05:11:31;;;;;;;33.30;16.55;;;;;;;-144.47;72.49;53336.78;5087856;28;20465;-68
2022/08/16 05:14:00;;;;;;;33.72;15.80;;;;;;;-144.47;71.78;53312.94;5089583;28;20016;-70
2022/08/16 05:16:29;;;;;;;35.22;16.13;;;;;;;-144.47;71.42;53340.75;5088949;28;20016;-66
2022/08/16 05:18:57;;;;;;;36.83;17.08;;;;;;;-144.47;71.46;53330.81;5098490;28;20027;-71
2022/08/16 05:21:23;;;;;;;39.73;17.43;;;;;;;-144.47;71.23;53350.69;5091819;28;20016;-70
2022/08/16 05:23:50;;;;;;;27.65;16.13;;;;;;;-144.47;71.06;53344.72;5085245;28;20027;-68
2022/08/16 05:26:16;;;;;;;32.00;14.82;;;;;;;-144.47;70.76;53342.72;5081303;28;20085;-68
2022/08/16 05:28:41;;;;;;;33.20;14.98;;;;;;;-144.47;69.84;53289.09;5084736;28;20492;-68
2022/08/16 05:31:07;;;;;;;32.67;15.77;;;;;;;-144.47;69.39;53279.16;5086629;28;20020;-68
2022/08/16 05:33:32;;;;;;;32.58;14.52;;;;;;;-144.47;69.56;53318.91;5080061;28;20380;-70
2022/08/16 05:35:58;;;;;;;28.83;14.07;;;;;;;-144.47;69.02;53297.03;5068345;28;20156;-69
2022/08/16 05:38:26;;;;;;;25.67;14.63;;;;;;;-144.47;68.42;53306.97;5100430;28;20383;-69
2022/08/16 05:40:54;;;;;;;28.50;14.07;;;;;;;-144.47;68.33;53318.91;5089782;28;20020;-68
2022/08/16 05:43:19;;;;;;;24.77;13.93;;;;;;;-144.47;68.32;53320.88;5088944;28;20031;-70
2022/08/16 05:45:45;;;;;;;25.95;13.38;;;;;;;-144.47;68.20;53330.81;5088203;28;20027;-69
2022/08/16 05:48:11;;;;;;;28.70;14.90;;;;;;;-144.47;67.81;53306.97;5075215;28;20017;-66
2022/08/16 05:50:37;;;;;;;35.33;14.90;;;;;;;-144.47;67.68;53320.88;5087930;28;20130;-67
2022/08/16 05:53:02;;;;;;;24.42;12.80;;;;;;;-144.47;67.50;53366.56;5070542;28;20522;-71
2022/08/16 05:55:27;;;;;;;29.65;13.40;;;;;;;-144.47;67.11;53305.00;5070482;28;20036;-67
2022/08/16 05:57:53;;;;;;;27.00;13.23;;;;;;;-144.47;66.95;53320.88;5101457;28;20022;-70
2022/08/16 06:00:18;;;;;;;24.67;12.25;;;;;;;-144.47;66.89;53322.88;5071184;28;20093;-68
2022/08/16 06:02:43;;;;;;;23.90;11.50;;;;;;;-144.47;66.41;53314.91;5088610;28;20403;-70
2022/08/16 06:05:09;;;;;;;23.23;11.80;;;;;;;-144.47;66.29;53279.16;5093861;28;20022;-68
2022/08/16 06:07:35;;;;;;;28.60;13.25;;;;;;;-144.47;65.89;53279.16;5096223;28;20020;-68
2022/08/16 06:10:01;;;;;;;21.20;11.05;;;;;;;-144.47;65.68;53314.91;5093388;28;20465;-69
2022/08/16 06:12:28;;;;;;;22.67;11.10;;;;;;;-144.47;64.79;53305.00;5089354;28;20354;-68
2022/08/16 06:14:57;;;;;;;22.55;10.90;;;;;;;-144.47;64.50;53305.00;5082072;28;20169;-70
2022/08/16 06:17:23;;;;;;;26.25;11.48;;;;;;;-144.47;64.34;53310.94;5087972;28;20020;-68
2022/08/16 06:19:48;;;;;;;26.15;11.20;;;;;;;-144.47;63.86;53342.72;5088206;28;20734;-68
2022/08/16 06:22:14;;;;;;;15.95;9.95;;;;;;;-144.47;63.84;53306.97;5095977;28;20048;-69
2022/08/16 06:24:39;;;;;;;27.08;10.65;;;;;;;-144.47;63.64;53301.03;5076887;28;20012;-67
2022/08/16 06:27:05;;;;;;;20.20;10.02;;;;;;;-144.47;63.20;53318.91;5089530;22;20048;-66
2022/08/16 06:29:30;;;;;;;16.63;9.13;;;;;;;-144.47;63.05;53305.00;5068350;28;20129;-66
2022/08/16 06:31:56;;;;;;;23.05;9.10;;;;;;;-144.47;62.66;53277.19;5057284;28;20075;-66
2022/08/16 06:34:21;;;;;;;16.45;9.55;;;;;;;-144.47;62.16;53285.13;5073861;28;20048;-68
2022/08/16 06:36:46;;;;;;;13.82;8.05;;;;;;;-144.47;61.19;53312.94;5068243;28;20020;-65
2022/08/16 06:39:12;;;;;;;16.25;8.93;;;;;;;-144.47;61.47;53314.91;5050688;28;20037;-67
2022/08/16 06:41:37;;;;;;;16.10;8.23;;;;;;;-144.47;61.00;53275.19;5051393;28;20043;-67
2022/08/16 06:44:03;;;;;;;19.77;8.77;;;;;;;-144.47;61.05;53287.13;5068992;28;20466;-66
2022/08/16 06:46:36;;;;;;;19.70;8.43;;;;;;;-144.47;60.61;53310.94;5068948;28;20442;-68
2022/08/16 06:49:03;;;;;;;28.65;8.20;;;;;;;-144.47;59.06;53299.03;5063769;28;20021;-67
2022/08/16 06:51:29;;;;;;;20.45;8.27;;;;;;;-144.47;58.52;53269.22;5072361;28;20020;-67
2022/08/16 06:53:54;;;;;;;19.63;8.32;;;;;;;-144.47;57.84;53303.00;5054333;28;20040;-66
2022/08/16 06:56:19;;;;;;;15.63;7.80;;;;;;;-144.47;57.77;53318.91;5071872;28;20378;-68
2022/08/16 06:58:45;;;;;;;14.45;7.68;;;;;;;-144.47;57.74;53275.19;5072144;28;20052;-66
2022/08/16 07:01:11;;;;;;;15.85;8.60;;;;;;;-144.47;57.61;53281.16;5053973;28;20484;-68
2022/08/16 07:03:36;;;;;;;18.20;8.35;;;;;;;-144.47;57.51;53285.13;5072373;28;20021;-68
2022/08/16 07:06:03;;;;;;;15.65;7.80;;;;;;;-144.47;57.58;53312.94;5071921;28;20693;-67
2022/08/16 07:08:28;;;;;;;15.23;8.10;;;;;;;-144.47;56.87;53253.34;5072194;28;20032;-67
2022/08/16 07:10:55;;;;;;;15.38;8.25;;;;;;;-144.47;55.94;53233.47;5072582;28;20017;-66
2022/08/16 07:13:21;;;;;;;16.67;8.85;;;;;;;-144.47;55.70;53279.16;5059669;28;20025;-68
2022/08/16 07:15:48;;;;;;;16.35;7.80;;;;;;;-144.47;55.65;53283.13;5072356;28;20519;-65
2022/08/16 07:18:18;;;;;;;14.25;7.97;;;;;;;-144.47;55.20;53281.16;5066120;28;20380;-66
2022/08/16 07:20:44;;;;;;;17.08;7.60;;;;;;;-144.47;55.30;53287.13;5054555;28;20099;-68
2022/08/16 07:23:09;;;;;;;16.08;8.73;;;;;;;-144.47;54.98;53269.22;5071590;28;20096;-68
2022/08/16 07:25:35;;;;;;;13.27;7.20;;;;;;;-144.47;55.17;53245.41;5073354;28;20017;-67
2022/08/16 07:28:07;;;;;;;15.82;7.57;;;;;;;-144.47;54.90;53239.44;5071703;28;20031;-66
2022/08/16 07:30:37;;;;;;;16.15;7.38;;;;;;;-144.47;55.10;53287.13;5071701;28;20470;-66
2022/08/16 07:33:04;;;;;;;15.50;7.45;;;;;;;-144.47;54.70;53285.13;5054069;28;20020;-70
2022/08/16 07:35:32;;;;;;;15.82;8.23;;;;;;;-144.47;54.48;53269.22;5053594;28;20047;-68
2022/08/16 07:37:58;;;;;;;20.15;7.82;;;;;;;-144.47;54.14;53257.31;5070813;28;20086;-66
2022/08/16 07:40:24;;;;;;;19.33;7.63;;;;;;;-144.47;54.22;53291.09;5071051;28;20478;-66
2022/08/16 07:42:50;;;;;;;17.05;8.15;;;;;;;-144.47;54.04;53251.34;5053165;28;20075;-65
2022/08/16 07:45:15;;;;;;;20.70;7.75;;;;;;;-144.47;54.26;53249.38;5071208;28;20029;-67
2022/08/16 07:47:42;;;;;;;22.20;8.05;;;;;;;-144.47;54.15;53245.41;5070394;28;20104;-68
2022/08/16 07:50:09;;;;;;;14.55;8.80;;;;;;;-144.47;54.33;53279.16;5070737;28;20063;-68
2022/08/16 07:52:35;;;;;;;14.13;7.88;;;;;;;-144.47;54.05;53251.34;5071018;28;20016;-66
2022/08/16 07:55:00;;;;;;;14.95;8.35;;;;;;;-144.47;54.20;53261.28;5071045;28;20079;-68
2022/08/16 07:57:25;;;;;;;17.58;8.77;;;;;;;-144.47;53.94;53245.41;5070690;28;20107;-63
2022/08/16 07:59:51;;;;;;;15.82;8.63;;;;;;;-144.47;54.07;53245.41;5071023;28;20017;-66
2022/08/16 08:02:17;;;;;;;16.58;9.23;;;;;;;-144.47;53.88;53239.44;5071090;28;20106;-66
2022/08/16 08:04:42;;;;;;;15.40;8.18;;;;;;;-144.47;53.71;53257.31;5052862;28;20157;-67
2022/08/16 08:07:08;;;;;;;14.18;7.32;;;;;;;-144.47;53.71;53249.38;5070619;28;20092;-64
2022/08/16 08:09:34;;;;;;;14.57;7.97;;;;;;;-144.47;53.50;53241.44;5070894;28;20023;-65
2022/08/16 08:11:59;;;;;;;15.85;8.68;;;;;;;-144.47;53.24;53245.41;5049002;28;20467;-64
2022/08/16 08:14:33;;;;;;;15.43;7.18;;;;;;;-144.47;53.19;53249.38;5060680;28;20032;-70
2022/08/16 08:17:00;;;;;;;19.73;7.80;;;;;;;-144.47;53.34;53249.38;5052556;28;20016;-64
2022/08/16 08:19:25;;;;;;;12.30;7.68;;;;;;;-144.47;53.05;53261.28;5070929;28;20108;-66
2022/08/16 08:21:52;;;;;;;15.35;7.20;;;;;;;-144.47;52.85;53249.38;5071232;28;20090;-67
2022/08/16 08:24:19;;;;;;;11.57;7.32;;;;;;;-144.47;52.59;53259.31;5070489;28;20031;-67
2022/08/16 08:26:45;;;;;;;13.07;7.45;;;;;;;-144.47;52.49;53247.38;5070151;28;20016;-66
2022/08/16 08:29:10;;;;;;;18.35;8.95;;;;;;;-144.47;52.03;53213.63;5070557;28;20051;-67
2022/08/16 08:31:35;;;;;;;20.38;7.63;;;;;;;-144.47;52.09;53231.50;5070233;28;20092;-67
2022/08/16 08:34:06;;;;;;;16.73;7.18;;;;;;;-144.47;51.84;53253.34;5053201;28;20390;-67
2022/08/16 08:36:34;;;;;;;11.35;6.78;;;;;;;-144.47;51.59;53229.50;5069999;28;20090;-66
2022/08/16 08:38:59;;;;;;;13.73;7.22;;;;;;;-144.47;51.40;53239.44;5051958;28;20460;-67
2022/08/16 08:41:28;;;;;;;11.63;7.18;;;;;;;-144.47;50.92;53241.44;5052469;28;20031;-66
2022/08/16 08:43:55;;;;;;;13.57;6.50;;;;;;;-144.47;50.72;53265.25;5070595;28;20437;-66
2022/08/16 08:46:21;;;;;;;12.10;6.88;;;;;;;-144.47;50.66;53231.50;5070049;28;20444;-66
2022/08/16 08:48:49;;;;;;;14.18;7.32;;;;;;;-144.47;50.25;53225.53;5069366;28;20086;-66
2022/08/16 08:51:17;;;;;;;15.80;7.75;;;;;;;-144.47;50.36;53207.66;5069876;28;20479;-66
2022/08/16 08:53:43;;;;;;;12.70;6.53;;;;;;;-144.47;49.96;53227.53;5069615;28;20036;-66
2022/08/16 08:56:09;;;;;;;24.08;7.70;;;;;;;-144.47;49.83;53229.50;5070004;28;20027;-66
2022/08/16 08:58:36;;;;;;;11.10;6.85;;;;;;;-144.47;49.61;53277.19;5069175;28;20024;-65
2022/08/16 09:01:04;;;;;;;10.77;7.07;;;;;;;-144.47;49.46;53267.25;5070158;28;20020;-65
2022/08/16 09:03:29;;;;;;;11.55;6.43;;;;;;;-144.47;49.16;53245.41;5035677;28;20081;-67
2022/08/16 09:05:55;;;;;;;14.35;7.53;;;;;;;-144.47;49.38;53245.41;5069728;28;20140;-67
2022/08/16 09:08:20;;;;;;;14.13;5.90;;;;;;;-144.47;48.95;53257.31;5069513;28;20367;-65
2022/08/16 09:10:46;;;;;;;12.75;5.47;;;;;;;-144.47;48.27;53249.38;5069098;28;20070;-67
2022/08/16 09:13:12;;;;;;;15.07;5.70;;;;;;;-144.47;47.90;53225.53;5056649;28;20160;-67
2022/08/16 09:15:38;;;;;;;11.38;6.03;;;;;;;-144.47;47.82;53225.53;5048192;28;20427;-66
2022/08/16 09:18:04;;;;;;;10.52;5.45;;;;;;;-144.47;47.29;53221.56;5067910;28;20031;-66
2022/08/16 09:20:30;;;;;;;14.52;6.75;;;;;;;-144.47;47.32;53237.44;5051518;28;20016;-66
2022/08/16 09:22:57;;;;;;;15.68;5.28;;;;;;;-144.47;46.47;53243.41;5051249;28;20020;-65
2022/08/16 09:25:23;;;;;;;10.10;4.63;;;;;;;-144.47;46.16;53209.66;5069418;28;20028;-67
2022/08/16 09:27:51;;;;;;;18.83;6.22;;;;;;;-144.47;46.41;53243.41;5069383;28;20476;-65
2022/08/16 09:30:16;;;;;;;13.05;5.07;;;;;;;-144.47;46.19;53209.66;5069491;28;20459;-67
2022/08/16 09:32:43;;;;;;;12.75;4.97;;;;;;;-144.47;45.21;53217.59;5074165;28;20028;-67
2022/08/16 09:35:09;;;;;;;17.77;4.75;;;;;;;-144.47;45.06;53217.59;5069541;28;20016;-65
2022/08/16 09:37:34;;;;;;;13.50;4.70;;;;;;;-144.47;45.25;53205.66;5050771;28;20012;-66
2022/08/16 09:40:00;;;;;;;12.57;4.88;;;;;;;-144.47;44.29;53225.53;5069088;28;20458;-64
2022/08/16 09:42:27;;;;;;;11.05;4.03;;;;;;;-144.47;43.69;53215.59;5051253;28;20139;-67
2022/08/16 09:44:53;;;;;;;11.65;4.40;;;;;;;-144.47;44.26;53201.69;5038068;28;20111;-66
2022/08/16 09:47:18;;;;;;;10.10;4.30;;;;;;;-144.47;43.82;53211.63;5068690;28;20485;-66
2022/08/16 09:49:44;;;;;;;13.02;4.63;;;;;;;-144.47;43.97;53217.59;5069260;28;20024;-68
2022/08/16 09:52:10;;;;;;;11.25;4.45;;;;;;;-144.47;44.11;53235.47;5051584;28;20020;-64
2022/08/16 09:54:37;;;;;;;10.77;4.78;;;;;;;-144.47;44.06;53197.72;5068827;28;20032;-65
2022/08/16 09:57:03;;;;;;;7.38;4.00;;;;;;;-144.47;42.65;53209.66;5068618;28;20036;-68
2022/08/16 09:59:30;;;;;;;9.23;3.88;;;;;;;-144.47;42.25;53203.69;5068027;28;20393;-66
2022/08/16 10:01:55;;;;;;;12.75;4.05;;;;;;;-144.47;42.17;53219.56;5050345;28;20027;-65
2022/08/16 10:04:24;;;;;;;13.57;4.03;;;;;;;-144.47;41.13;53213.63;5068693;28;20170;-68
2022/08/16 10:06:49;;;;;;;8.65;3.55;;;;;;;-144.47;41.53;53189.78;5050836;28;20028;-68
2022/08/16 10:09:14;;;;;;;10.32;4.22;;;;;;;-144.47;41.74;53221.56;5068494;28;20016;-66
2022/08/16 10:14:30;;;;;;;10.77;3.83;;;;;;;-144.47;40.36;53169.91;5059212;28;20431;-68
2022/08/16 10:16:58;;;;;;;7.45;2.90;;;;;;;-144.47;39.39;53195.75;5068978;28;20048;-66
2022/08/16 10:19:24;;;;;;;10.25;3.45;;;;;;;-144.47;40.24;53165.94;5059801;28;20024;-65
2022/08/16 10:21:49;;;;;;;10.82;4.00;;;;;;;-144.47;40.23;53233.47;5069718;28;20043;-68
2022/08/16 10:24:14;;;;;;;7.95;3.70;;;;;;;-144.47;40.01;53179.84;5072336;28;20050;-67
2022/08/16 10:26:40;;;;;;;8.98;2.80;;;;;;;-144.47;39.12;53185.81;5052553;28;20678;-66
2022/08/16 10:29:06;;;;;;;7.68;2.72;;;;;;;-144.47;37.85;53201.69;5071815;28;20024;-68
2022/08/16 10:31:32;;;;;;;4.57;2.53;;;;;;;-144.47;38.02;53163.97;5072185;28;20031;-66
2022/08/16 10:33:58;;;;;;;5.85;2.80;;;;;;;-144.47;37.90;53185.81;5048814;28;20082;-64
2022/08/16 10:36:23;;;;;;;5.93;2.88;;;;;;;-144.47;37.62;53213.63;5063607;28;20032;-66
2022/08/16 10:38:48;;;;;;;9.60;3.15;;;;;;;-144.47;38.45;53144.09;5067428;28;20021;-67
2022/08/16 10:41:14;;;;;;;5.75;2.92;;;;;;;-144.47;38.23;53177.88;5071291;28;20387;-66
2022/08/16 10:43:41;;;;;;;7.25;3.03;;;;;;;-144.47;38.51;53197.72;5069728;28;20367;-66
2022/08/16 10:46:10;;;;;;;14.93;4.00;;;;;;;-144.47;38.68;53179.84;5074431;28;20074;-66
2022/08/16 10:48:37;;;;;;;10.45;3.10;;;;;;;-144.47;38.16;53158.00;5067571;28;20362;-66
2022/08/16 10:51:04;;;;;;;11.48;3.97;;;;;;;-144.47;37.65;53197.72;5072390;28;20020;-68
2022/08/16 10:53:31;;;;;;;9.50;3.08;;;;;;;-144.47;37.70;53175.88;5043269;28;20024;-67
2022/08/16 10:56:00;;;;;;;6.53;2.65;;;;;;;-144.47;37.34;53169.91;5052592;28;20052;-67
2022/08/16 10:58:26;;;;;;;7.03;3.00;;;;;;;-144.47;37.26;53160.00;5072699;28;20020;-67
2022/08/16 11:00:52;;;;;;;10.52;3.20;;;;;;;-144.47;37.36;53193.75;5072357;28;20035;-65
2022/08/16 11:03:18;;;;;;;6.80;3.35;;;;;;;-144.47;37.28;53187.78;5073694;28;20043;-67
2022/08/16 11:05:44;;;;;;;8.70;3.67;;;;;;;-144.47;36.71;53150.06;5072873;28;20103;-65